sensor_id;sensor_type;location;lat;lon;timestamp;P1;durP1;ratioP1;P2;durP2;ratioP2
78542;SDS011;67836;52.430;14.446;2023-05-07T00:00:43;14.45;;;8.80;;
78542;SDS011;67836;52.430;14.446;2023-05-07T00:03:27;15.68;;;8.13;;
78542;SDS011;67836;52.430;14.446;2023-05-07T00:06:11;11.23;;;6.85;;
78542;SDS011;67836;52.430;14.446;2023-05-07T00:08:56;18.15;;;10.80;;
78542;SDS011;67836;52.430;14.446;2023-05-07T00:11:40;16.27;;;9.43;;
78542;SDS011;67836;52.430;14.446;2023-05-07T00:14:24;8.55;;;5.15;;
78542;SDS011;67836;52.430;14.446;2023-05-07T00:17:09;17.42;;;10.20;;
78542;SDS011;67836;52.430;14.446;2023-05-07T00:19:53;15.68;;;10.20;;
78542;SDS011;67836;52.430;14.446;2023-05-07T00:22:37;16.98;;;10.45;;
78542;SDS011;67836;52.430;14.446;2023-05-07T00:25:21;17.85;;;11.02;;
78542;SDS011;67836;52.430;14.446;2023-05-07T00:30:54;14.10;;;7.30;;
78542;SDS011;67836;52.430;14.446;2023-05-07T00:33:39;11.00;;;6.10;;
78542;SDS011;67836;52.430;14.446;2023-05-07T00:36:23;18.80;;;11.52;;
78542;SDS011;67836;52.430;14.446;2023-05-07T00:39:07;12.68;;;7.50;;
78542;SDS011;67836;52.430;14.446;2023-05-07T00:41:51;14.95;;;8.65;;
78542;SDS011;67836;52.430;14.446;2023-05-07T00:44:35;18.67;;;10.40;;
78542;SDS011;67836;52.430;14.446;2023-05-07T00:47:20;13.63;;;8.23;;
78542;SDS011;67836;52.430;14.446;2023-05-07T00:50:04;13.75;;;8.52;;
78542;SDS011;67836;52.430;14.446;2023-05-07T00:52:49;13.70;;;7.15;;
78542;SDS011;67836;52.430;14.446;2023-05-07T00:55:33;19.38;;;12.50;;
78542;SDS011;67836;52.430;14.446;2023-05-07T00:58:17;19.38;;;10.93;;
78542;SDS011;67836;52.430;14.446;2023-05-07T01:01:01;11.75;;;6.80;;
78542;SDS011;67836;52.430;14.446;2023-05-07T01:03:45;20.65;;;12.05;;
78542;SDS011;67836;52.430;14.446;2023-05-07T01:06:29;18.45;;;10.73;;
78542;SDS011;67836;52.430;14.446;2023-05-07T01:09:14;15.13;;;8.60;;
78542;SDS011;67836;52.430;14.446;2023-05-07T01:11:58;21.30;;;10.82;;
78542;SDS011;67836;52.430;14.446;2023-05-07T01:14:43;18.60;;;10.88;;
78542;SDS011;67836;52.430;14.446;2023-05-07T01:17:27;11.75;;;7.55;;
78542;SDS011;67836;52.430;14.446;2023-05-07T01:20:11;16.45;;;7.60;;
78542;SDS011;67836;52.430;14.446;2023-05-07T01:26:43;15.20;;;9.60;;
78542;SDS011;67836;52.430;14.446;2023-05-07T01:29:28;19.35;;;10.80;;
78542;SDS011;67836;52.430;14.446;2023-05-07T01:32:12;15.30;;;8.55;;
78542;SDS011;67836;52.430;14.446;2023-05-07T01:34:57;16.95;;;9.07;;
78542;SDS011;67836;52.430;14.446;2023-05-07T01:37:42;14.63;;;7.05;;
78542;SDS011;67836;52.430;14.446;2023-05-07T01:40:26;15.27;;;8.05;;
78542;SDS011;67836;52.430;14.446;2023-05-07T01:43:10;20.50;;;12.10;;
78542;SDS011;67836;52.430;14.446;2023-05-07T01:45:55;12.40;;;7.00;;
78542;SDS011;67836;52.430;14.446;2023-05-07T01:48:39;19.75;;;10.80;;
78542;SDS011;67836;52.430;14.446;2023-05-07T01:51:24;15.70;;;8.07;;
78542;SDS011;67836;52.430;14.446;2023-05-07T01:54:08;10.35;;;6.30;;
78542;SDS011;67836;52.430;14.446;2023-05-07T01:59:35;15.43;;;9.15;;
78542;SDS011;67836;52.430;14.446;2023-05-07T02:02:19;15.77;;;8.80;;
78542;SDS011;67836;52.430;14.446;2023-05-07T02:05:04;11.02;;;5.63;;
78542;SDS011;67836;52.430;14.446;2023-05-07T02:07:48;15.93;;;9.73;;
78542;SDS011;67836;52.430;14.446;2023-05-07T02:10:32;15.80;;;8.02;;
78542;SDS011;67836;52.430;14.446;2023-05-07T02:13:17;17.00;;;9.65;;
78542;SDS011;67836;52.430;14.446;2023-05-07T02:16:01;8.65;;;4.80;;
78542;SDS011;67836;52.430;14.446;2023-05-07T02:18:46;19.00;;;10.45;;
78542;SDS011;67836;52.430;14.446;2023-05-07T02:21:29;14.95;;;8.63;;
78542;SDS011;67836;52.430;14.446;2023-05-07T02:24:15;16.38;;;9.15;;
78542;SDS011;67836;52.430;14.446;2023-05-07T02:26:59;18.65;;;12.20;;
78542;SDS011;67836;52.430;14.446;2023-05-07T02:29:43;21.60;;;8.48;;
78542;SDS011;67836;52.430;14.446;2023-05-07T02:32:28;19.17;;;11.65;;
78542;SDS011;67836;52.430;14.446;2023-05-07T02:35:12;14.23;;;7.78;;
78542;SDS011;67836;52.430;14.446;2023-05-07T02:37:57;12.77;;;7.43;;
78542;SDS011;67836;52.430;14.446;2023-05-07T02:40:41;14.00;;;7.63;;
78542;SDS011;67836;52.430;14.446;2023-05-07T02:43:25;11.43;;;6.93;;
78542;SDS011;67836;52.430;14.446;2023-05-07T02:46:09;12.95;;;6.15;;
78542;SDS011;67836;52.430;14.446;2023-05-07T02:48:53;14.85;;;8.15;;
78542;SDS011;67836;52.430;14.446;2023-05-07T02:51:37;14.65;;;7.93;;
78542;SDS011;67836;52.430;14.446;2023-05-07T02:54:21;15.95;;;8.57;;
78542;SDS011;67836;52.430;14.446;2023-05-07T02:57:05;11.05;;;7.00;;
78542;SDS011;67836;52.430;14.446;2023-05-07T02:59:50;15.02;;;8.10;;
78542;SDS011;67836;52.430;14.446;2023-05-07T03:02:34;15.45;;;8.93;;
78542;SDS011;67836;52.430;14.446;2023-05-07T03:05:27;12.13;;;5.72;;
78542;SDS011;67836;52.430;14.446;2023-05-07T03:08:11;13.50;;;8.60;;
78542;SDS011;67836;52.430;14.446;2023-05-07T03:10:55;15.05;;;7.50;;
78542;SDS011;67836;52.430;14.446;2023-05-07T03:13:39;10.77;;;5.50;;
78542;SDS011;67836;52.430;14.446;2023-05-07T03:16:23;8.95;;;4.50;;
78542;SDS011;67836;52.430;14.446;2023-05-07T03:19:07;12.02;;;5.60;;
78542;SDS011;67836;52.430;14.446;2023-05-07T03:24:35;9.45;;;5.22;;
78542;SDS011;67836;52.430;14.446;2023-05-07T03:27:19;12.50;;;6.53;;
78542;SDS011;67836;52.430;14.446;2023-05-07T03:30:03;9.55;;;5.85;;
78542;SDS011;67836;52.430;14.446;2023-05-07T03:32:48;9.60;;;5.30;;
78542;SDS011;67836;52.430;14.446;2023-05-07T03:35:32;8.40;;;5.03;;
78542;SDS011;67836;52.430;14.446;2023-05-07T03:38:16;12.20;;;7.15;;
78542;SDS011;67836;52.430;14.446;2023-05-07T03:41:00;9.27;;;5.63;;
78542;SDS011;67836;52.430;14.446;2023-05-07T03:46:28;11.07;;;6.78;;
78542;SDS011;67836;52.430;14.446;2023-05-07T03:49:12;12.68;;;6.70;;
78542;SDS011;67836;52.430;14.446;2023-05-07T03:54:40;13.18;;;7.03;;
78542;SDS011;67836;52.430;14.446;2023-05-07T03:57:24;15.63;;;7.35;;
78542;SDS011;67836;52.430;14.446;2023-05-07T04:00:09;14.07;;;8.43;;
78542;SDS011;67836;52.430;14.446;2023-05-07T04:02:53;13.73;;;8.25;;
78542;SDS011;67836;52.430;14.446;2023-05-07T04:05:38;13.30;;;7.32;;
78542;SDS011;67836;52.430;14.446;2023-05-07T04:08:22;16.73;;;8.75;;
78542;SDS011;67836;52.430;14.446;2023-05-07T04:11:06;13.88;;;7.60;;
78542;SDS011;67836;52.430;14.446;2023-05-07T04:13:50;18.55;;;9.88;;
78542;SDS011;67836;52.430;14.446;2023-05-07T04:16:34;15.88;;;8.82;;
78542;SDS011;67836;52.430;14.446;2023-05-07T04:19:20;14.07;;;6.65;;
78542;SDS011;67836;52.430;14.446;2023-05-07T04:25:50;15.65;;;8.50;;
78542;SDS011;67836;52.430;14.446;2023-05-07T04:28:34;14.50;;;7.57;;
78542;SDS011;67836;52.430;14.446;2023-05-07T04:31:18;15.38;;;6.38;;
78542;SDS011;67836;52.430;14.446;2023-05-07T04:34:02;12.02;;;6.43;;
78542;SDS011;67836;52.430;14.446;2023-05-07T04:36:46;7.57;;;4.28;;
78542;SDS011;67836;52.430;14.446;2023-05-07T04:39:32;15.73;;;7.40;;
78542;SDS011;67836;52.430;14.446;2023-05-07T04:42:16;16.48;;;8.32;;
78542;SDS011;67836;52.430;14.446;2023-05-07T04:45:01;15.75;;;7.05;;
78542;SDS011;67836;52.430;14.446;2023-05-07T04:47:45;11.50;;;6.57;;
78542;SDS011;67836;52.430;14.446;2023-05-07T04:50:29;15.10;;;7.95;;
78542;SDS011;67836;52.430;14.446;2023-05-07T04:53:13;10.77;;;6.25;;
78542;SDS011;67836;52.430;14.446;2023-05-07T04:55:58;10.07;;;5.78;;
78542;SDS011;67836;52.430;14.446;2023-05-07T04:58:41;12.82;;;7.13;;
78542;SDS011;67836;52.430;14.446;2023-05-07T05:01:25;11.75;;;6.80;;
78542;SDS011;67836;52.430;14.446;2023-05-07T05:04:09;10.15;;;5.00;;
78542;SDS011;67836;52.430;14.446;2023-05-07T05:06:54;13.73;;;7.00;;
78542;SDS011;67836;52.430;14.446;2023-05-07T05:09:38;15.13;;;9.07;;
78542;SDS011;67836;52.430;14.446;2023-05-07T05:12:22;15.68;;;7.22;;
78542;SDS011;67836;52.430;14.446;2023-05-07T05:15:06;11.15;;;5.57;;
78542;SDS011;67836;52.430;14.446;2023-05-07T05:17:51;13.93;;;6.90;;
78542;SDS011;67836;52.430;14.446;2023-05-07T05:20:35;15.52;;;8.73;;
78542;SDS011;67836;52.430;14.446;2023-05-07T05:23:19;13.07;;;7.38;;
78542;SDS011;67836;52.430;14.446;2023-05-07T05:26:03;12.55;;;8.10;;
78542;SDS011;67836;52.430;14.446;2023-05-07T05:28:48;13.13;;;7.45;;
78542;SDS011;67836;52.430;14.446;2023-05-07T05:31:31;13.70;;;7.97;;
78542;SDS011;67836;52.430;14.446;2023-05-07T05:37:34;12.27;;;8.07;;
78542;SDS011;67836;52.430;14.446;2023-05-07T05:40:18;12.23;;;7.25;;
78542;SDS011;67836;52.430;14.446;2023-05-07T05:45:45;10.30;;;5.80;;
78542;SDS011;67836;52.430;14.446;2023-05-07T05:48:29;9.20;;;4.75;;
78542;SDS011;67836;52.430;14.446;2023-05-07T05:51:14;11.27;;;6.75;;
78542;SDS011;67836;52.430;14.446;2023-05-07T05:53:57;10.82;;;6.28;;
78542;SDS011;67836;52.430;14.446;2023-05-07T05:56:42;12.10;;;6.10;;
78542;SDS011;67836;52.430;14.446;2023-05-07T05:59:26;13.55;;;6.90;;
78542;SDS011;67836;52.430;14.446;2023-05-07T06:02:10;11.02;;;6.72;;
78542;SDS011;67836;52.430;14.446;2023-05-07T06:04:54;9.50;;;5.40;;
78542;SDS011;67836;52.430;14.446;2023-05-07T06:07:38;13.05;;;5.97;;
78542;SDS011;67836;52.430;14.446;2023-05-07T06:10:22;9.55;;;5.47;;
78542;SDS011;67836;52.430;14.446;2023-05-07T06:13:08;12.35;;;5.53;;
78542;SDS011;67836;52.430;14.446;2023-05-07T06:15:52;9.00;;;5.30;;
78542;SDS011;67836;52.430;14.446;2023-05-07T06:18:36;11.38;;;6.07;;
78542;SDS011;67836;52.430;14.446;2023-05-07T06:21:20;7.95;;;4.25;;
78542;SDS011;67836;52.430;14.446;2023-05-07T06:24:05;6.20;;;3.00;;
78542;SDS011;67836;52.430;14.446;2023-05-07T06:26:49;8.68;;;4.80;;
78542;SDS011;67836;52.430;14.446;2023-05-07T06:29:33;10.95;;;5.07;;
78542;SDS011;67836;52.430;14.446;2023-05-07T06:32:17;8.60;;;4.55;;
78542;SDS011;67836;52.430;14.446;2023-05-07T06:35:02;5.72;;;3.35;;
78542;SDS011;67836;52.430;14.446;2023-05-07T06:37:46;8.25;;;4.18;;
78542;SDS011;67836;52.430;14.446;2023-05-07T06:40:30;8.75;;;4.82;;
78542;SDS011;67836;52.430;14.446;2023-05-07T06:43:14;8.75;;;5.07;;
78542;SDS011;67836;52.430;14.446;2023-05-07T06:45:58;7.85;;;4.35;;
78542;SDS011;67836;52.430;14.446;2023-05-07T06:48:42;9.77;;;5.38;;
78542;SDS011;67836;52.430;14.446;2023-05-07T06:51:26;7.82;;;4.32;;
78542;SDS011;67836;52.430;14.446;2023-05-07T06:54:11;6.80;;;3.85;;
78542;SDS011;67836;52.430;14.446;2023-05-07T06:56:55;7.97;;;4.28;;
78542;SDS011;67836;52.430;14.446;2023-05-07T06:59:39;9.25;;;4.07;;
78542;SDS011;67836;52.430;14.446;2023-05-07T07:02:23;6.85;;;3.53;;
78542;SDS011;67836;52.430;14.446;2023-05-07T07:05:07;8.13;;;4.38;;
78542;SDS011;67836;52.430;14.446;2023-05-07T07:07:52;8.20;;;4.55;;
78542;SDS011;67836;52.430;14.446;2023-05-07T07:10:36;7.47;;;3.95;;
78542;SDS011;67836;52.430;14.446;2023-05-07T07:13:20;7.82;;;3.17;;
78542;SDS011;67836;52.430;14.446;2023-05-07T07:16:04;8.35;;;3.75;;
78542;SDS011;67836;52.430;14.446;2023-05-07T07:18:48;6.28;;;2.92;;
78542;SDS011;67836;52.430;14.446;2023-05-07T07:21:32;6.80;;;3.17;;
78542;SDS011;67836;52.430;14.446;2023-05-07T07:24:16;6.18;;;2.63;;
78542;SDS011;67836;52.430;14.446;2023-05-07T07:27:04;5.95;;;2.80;;
78542;SDS011;67836;52.430;14.446;2023-05-07T07:29:49;5.43;;;2.58;;
78542;SDS011;67836;52.430;14.446;2023-05-07T07:32:33;9.23;;;2.75;;
78542;SDS011;67836;52.430;14.446;2023-05-07T07:35:18;4.25;;;2.30;;
78542;SDS011;67836;52.430;14.446;2023-05-07T07:38:02;4.93;;;2.63;;
78542;SDS011;67836;52.430;14.446;2023-05-07T07:47:46;4.72;;;2.47;;
78542;SDS011;67836;52.430;14.446;2023-05-07T07:54:07;4.35;;;2.00;;
78542;SDS011;67836;52.430;14.446;2023-05-07T07:56:51;5.05;;;2.10;;
78542;SDS011;67836;52.430;14.446;2023-05-07T07:59:36;5.10;;;1.80;;
78542;SDS011;67836;52.430;14.446;2023-05-07T08:02:20;2.90;;;1.58;;
78542;SDS011;67836;52.430;14.446;2023-05-07T08:05:04;4.25;;;1.88;;
78542;SDS011;67836;52.430;14.446;2023-05-07T08:07:48;6.00;;;2.25;;
78542;SDS011;67836;52.430;14.446;2023-05-07T08:10:36;2.90;;;1.55;;
78542;SDS011;67836;52.430;14.446;2023-05-07T08:13:23;3.97;;;2.15;;
78542;SDS011;67836;52.430;14.446;2023-05-07T08:16:07;4.57;;;2.15;;
78542;SDS011;67836;52.430;14.446;2023-05-07T08:18:51;3.92;;;1.95;;
78542;SDS011;67836;52.430;14.446;2023-05-07T08:21:38;3.42;;;1.90;;
78542;SDS011;67836;52.430;14.446;2023-05-07T08:24:23;4.93;;;1.88;;
78542;SDS011;67836;52.430;14.446;2023-05-07T08:27:07;5.15;;;1.98;;
78542;SDS011;67836;52.430;14.446;2023-05-07T08:29:51;3.65;;;1.90;;
78542;SDS011;67836;52.430;14.446;2023-05-07T08:32:35;3.80;;;1.88;;
78542;SDS011;67836;52.430;14.446;2023-05-07T08:35:19;4.35;;;2.00;;
78542;SDS011;67836;52.430;14.446;2023-05-07T08:38:04;7.15;;;1.95;;
78542;SDS011;67836;52.430;14.446;2023-05-07T08:40:48;3.88;;;1.80;;
78542;SDS011;67836;52.430;14.446;2023-05-07T08:43:32;5.00;;;1.50;;
78542;SDS011;67836;52.430;14.446;2023-05-07T08:46:21;3.45;;;1.70;;
78542;SDS011;67836;52.430;14.446;2023-05-07T08:49:06;4.90;;;2.00;;
78542;SDS011;67836;52.430;14.446;2023-05-07T08:51:50;5.03;;;1.70;;
78542;SDS011;67836;52.430;14.446;2023-05-07T08:54:36;4.80;;;2.22;;
78542;SDS011;67836;52.430;14.446;2023-05-07T08:57:20;4.38;;;2.00;;
78542;SDS011;67836;52.430;14.446;2023-05-07T09:00:05;4.65;;;2.03;;
78542;SDS011;67836;52.430;14.446;2023-05-07T09:02:52;2.55;;;1.50;;
78542;SDS011;67836;52.430;14.446;2023-05-07T09:05:36;4.35;;;2.00;;
78542;SDS011;67836;52.430;14.446;2023-05-07T09:08:23;2.63;;;1.20;;
78542;SDS011;67836;52.430;14.446;2023-05-07T09:11:08;3.17;;;1.70;;
78542;SDS011;67836;52.430;14.446;2023-05-07T09:13:54;5.88;;;2.50;;
78542;SDS011;67836;52.430;14.446;2023-05-07T09:16:43;2.63;;;1.45;;
78542;SDS011;67836;52.430;14.446;2023-05-07T09:19:27;4.35;;;2.30;;
78542;SDS011;67836;52.430;14.446;2023-05-07T09:22:11;3.58;;;1.60;;
78542;SDS011;67836;52.430;14.446;2023-05-07T09:24:56;4.68;;;1.90;;
78542;SDS011;67836;52.430;14.446;2023-05-07T09:27:41;3.58;;;1.80;;
78542;SDS011;67836;52.430;14.446;2023-05-07T09:30:28;2.35;;;1.35;;
78542;SDS011;67836;52.430;14.446;2023-05-07T09:33:13;4.32;;;1.85;;
78542;SDS011;67836;52.430;14.446;2023-05-07T09:36:01;3.10;;;1.50;;
78542;SDS011;67836;52.430;14.446;2023-05-07T09:38:46;3.97;;;1.55;;
78542;SDS011;67836;52.430;14.446;2023-05-07T09:41:30;3.88;;;1.80;;
78542;SDS011;67836;52.430;14.446;2023-05-07T09:44:16;2.67;;;1.40;;
78542;SDS011;67836;52.430;14.446;2023-05-07T09:47:01;2.90;;;1.50;;
78542;SDS011;67836;52.430;14.446;2023-05-07T09:49:48;3.05;;;1.67;;
78542;SDS011;67836;52.430;14.446;2023-05-07T09:52:33;4.05;;;1.60;;
78542;SDS011;67836;52.430;14.446;2023-05-07T09:55:19;3.80;;;1.50;;
78542;SDS011;67836;52.430;14.446;2023-05-07T09:58:03;2.75;;;1.63;;
78542;SDS011;67836;52.430;14.446;2023-05-07T10:00:48;3.45;;;1.60;;
78542;SDS011;67836;52.430;14.446;2023-05-07T10:03:33;3.10;;;1.45;;
78542;SDS011;67836;52.430;14.446;2023-05-07T10:06:20;3.28;;;1.55;;
78542;SDS011;67836;52.430;14.446;2023-05-07T10:09:04;3.75;;;1.80;;
78542;SDS011;67836;52.430;14.446;2023-05-07T10:11:49;4.15;;;1.42;;
78542;SDS011;67836;52.430;14.446;2023-05-07T10:14:33;2.60;;;1.40;;
78542;SDS011;67836;52.430;14.446;2023-05-07T10:17:17;4.47;;;1.38;;
78542;SDS011;67836;52.430;14.446;2023-05-07T10:20:02;3.05;;;1.60;;
78542;SDS011;67836;52.430;14.446;2023-05-07T10:22:47;2.15;;;1.38;;
78542;SDS011;67836;52.430;14.446;2023-05-07T10:25:32;2.42;;;1.17;;
78542;SDS011;67836;52.430;14.446;2023-05-07T10:28:16;2.55;;;1.20;;
78542;SDS011;67836;52.430;14.446;2023-05-07T10:34:37;5.30;;;1.58;;
78542;SDS011;67836;52.430;14.446;2023-05-07T10:37:22;3.55;;;1.55;;
78542;SDS011;67836;52.430;14.446;2023-05-07T10:40:08;3.08;;;1.55;;
78542;SDS011;67836;52.430;14.446;2023-05-07T10:42:59;3.55;;;1.40;;
78542;SDS011;67836;52.430;14.446;2023-05-07T10:46:27;2.78;;;1.38;;
78542;SDS011;67836;52.430;14.446;2023-05-07T10:51:46;3.65;;;1.65;;
78542;SDS011;67836;52.430;14.446;2023-05-07T11:01:07;3.17;;;1.70;;
78542;SDS011;67836;52.430;14.446;2023-05-07T11:09:55;1.85;;;1.00;;
78542;SDS011;67836;52.430;14.446;2023-05-07T11:15:36;3.55;;;1.80;;
78542;SDS011;67836;52.430;14.446;2023-05-07T11:18:21;2.45;;;1.10;;
78542;SDS011;67836;52.430;14.446;2023-05-07T11:21:05;4.40;;;1.60;;
78542;SDS011;67836;52.430;14.446;2023-05-07T11:26:43;1.83;;;1.20;;
78542;SDS011;67836;52.430;14.446;2023-05-07T11:29:33;2.85;;;1.30;;
78542;SDS011;67836;52.430;14.446;2023-05-07T11:32:24;2.42;;;1.30;;
78542;SDS011;67836;52.430;14.446;2023-05-07T11:35:12;2.85;;;1.50;;
78542;SDS011;67836;52.430;14.446;2023-05-07T11:38:00;2.28;;;1.48;;
78542;SDS011;67836;52.430;14.446;2023-05-07T11:40:51;3.50;;;1.60;;
78542;SDS011;67836;52.430;14.446;2023-05-07T11:43:36;2.90;;;1.50;;
78542;SDS011;67836;52.430;14.446;2023-05-07T11:46:20;3.92;;;1.73;;
78542;SDS011;67836;52.430;14.446;2023-05-07T11:49:04;4.00;;;2.05;;
78542;SDS011;67836;52.430;14.446;2023-05-07T11:51:48;1.98;;;1.20;;
78542;SDS011;67836;52.430;14.446;2023-05-07T11:54:35;4.28;;;1.30;;
78542;SDS011;67836;52.430;14.446;2023-05-07T11:57:21;3.78;;;1.40;;
78542;SDS011;67836;52.430;14.446;2023-05-07T12:00:06;2.63;;;1.27;;
78542;SDS011;67836;52.430;14.446;2023-05-07T12:02:50;3.05;;;1.40;;
78542;SDS011;67836;52.430;14.446;2023-05-07T12:05:34;4.75;;;1.15;;
78542;SDS011;67836;52.430;14.446;2023-05-07T12:08:18;2.63;;;1.30;;
78542;SDS011;67836;52.430;14.446;2023-05-07T12:11:03;2.33;;;1.10;;
78542;SDS011;67836;52.430;14.446;2023-05-07T12:13:51;2.58;;;1.40;;
78542;SDS011;67836;52.430;14.446;2023-05-07T12:16:35;2.25;;;1.23;;
78542;SDS011;67836;52.430;14.446;2023-05-07T12:19:19;1.67;;;1.13;;
78542;SDS011;67836;52.430;14.446;2023-05-07T12:22:04;1.10;;;0.80;;
78542;SDS011;67836;52.430;14.446;2023-05-07T12:24:49;2.47;;;1.10;;
78542;SDS011;67836;52.430;14.446;2023-05-07T12:27:40;2.35;;;1.13;;
78542;SDS011;67836;52.430;14.446;2023-05-07T12:30:24;2.53;;;1.20;;
78542;SDS011;67836;52.430;14.446;2023-05-07T12:33:08;2.42;;;1.27;;
78542;SDS011;67836;52.430;14.446;2023-05-07T12:35:54;2.50;;;1.17;;
78542;SDS011;67836;52.430;14.446;2023-05-07T12:38:40;3.58;;;1.20;;
78542;SDS011;67836;52.430;14.446;2023-05-07T12:41:24;3.58;;;1.25;;
78542;SDS011;67836;52.430;14.446;2023-05-07T12:44:11;2.28;;;0.90;;
78542;SDS011;67836;52.430;14.446;2023-05-07T12:46:57;2.67;;;1.20;;
78542;SDS011;67836;52.430;14.446;2023-05-07T12:49:41;1.60;;;0.90;;
78542;SDS011;67836;52.430;14.446;2023-05-07T12:52:25;1.67;;;1.00;;
78542;SDS011;67836;52.430;14.446;2023-05-07T12:55:11;1.45;;;1.02;;
78542;SDS011;67836;52.430;14.446;2023-05-07T12:57:56;3.28;;;1.25;;
78542;SDS011;67836;52.430;14.446;2023-05-07T13:00:41;1.95;;;1.00;;
78542;SDS011;67836;52.430;14.446;2023-05-07T13:03:28;4.55;;;1.75;;
78542;SDS011;67836;52.430;14.446;2023-05-07T13:06:13;2.15;;;0.95;;
78542;SDS011;67836;52.430;14.446;2023-05-07T13:08:57;2.05;;;1.30;;
78542;SDS011;67836;52.430;14.446;2023-05-07T13:11:41;2.55;;;1.10;;
78542;SDS011;67836;52.430;14.446;2023-05-07T13:14:25;1.08;;;0.80;;
78542;SDS011;67836;52.430;14.446;2023-05-07T13:19:53;2.80;;;0.88;;
78542;SDS011;67836;52.430;14.446;2023-05-07T13:22:37;2.58;;;1.10;;
78542;SDS011;67836;52.430;14.446;2023-05-07T13:25:21;1.60;;;1.10;;
78542;SDS011;67836;52.430;14.446;2023-05-07T13:28:05;2.08;;;1.00;;
78542;SDS011;67836;52.430;14.446;2023-05-07T13:30:50;1.15;;;0.77;;
78542;SDS011;67836;52.430;14.446;2023-05-07T13:33:35;2.53;;;1.10;;
78542;SDS011;67836;52.430;14.446;2023-05-07T13:36:19;2.92;;;1.27;;
78542;SDS011;67836;52.430;14.446;2023-05-07T13:39:03;2.03;;;1.10;;
78542;SDS011;67836;52.430;14.446;2023-05-07T13:41:47;2.72;;;1.23;;
78542;SDS011;67836;52.430;14.446;2023-05-07T13:44:31;2.67;;;1.20;;
78542;SDS011;67836;52.430;14.446;2023-05-07T13:47:16;1.60;;;1.00;;
78542;SDS011;67836;52.430;14.446;2023-05-07T13:50:00;4.05;;;1.65;;
78542;SDS011;67836;52.430;14.446;2023-05-07T13:52:44;3.40;;;1.52;;
78542;SDS011;67836;52.430;14.446;2023-05-07T13:55:34;2.08;;;1.02;;
78542;SDS011;67836;52.430;14.446;2023-05-07T13:58:18;2.33;;;1.02;;
78542;SDS011;67836;52.430;14.446;2023-05-07T14:01:03;2.25;;;1.08;;
78542;SDS011;67836;52.430;14.446;2023-05-07T14:03:47;1.58;;;1.20;;
78542;SDS011;67836;52.430;14.446;2023-05-07T14:06:31;2.70;;;1.48;;
78542;SDS011;67836;52.430;14.446;2023-05-07T14:09:15;3.33;;;1.10;;
78542;SDS011;67836;52.430;14.446;2023-05-07T14:11:59;1.92;;;1.20;;
78542;SDS011;67836;52.430;14.446;2023-05-07T14:14:43;1.92;;;1.20;;
78542;SDS011;67836;52.430;14.446;2023-05-07T14:17:29;2.47;;;1.40;;
78542;SDS011;67836;52.430;14.446;2023-05-07T14:20:13;2.00;;;1.20;;
78542;SDS011;67836;52.430;14.446;2023-05-07T14:22:58;2.80;;;1.35;;
78542;SDS011;67836;52.430;14.446;2023-05-07T14:25:42;2.08;;;1.20;;
78542;SDS011;67836;52.430;14.446;2023-05-07T14:28:27;1.80;;;1.00;;
78542;SDS011;67836;52.430;14.446;2023-05-07T14:31:11;4.47;;;1.50;;
78542;SDS011;67836;52.430;14.446;2023-05-07T14:33:56;2.40;;;1.50;;
78542;SDS011;67836;52.430;14.446;2023-05-07T14:36:41;2.28;;;1.23;;
78542;SDS011;67836;52.430;14.446;2023-05-07T14:39:27;2.78;;;1.38;;
78542;SDS011;67836;52.430;14.446;2023-05-07T14:42:11;3.28;;;1.35;;
78542;SDS011;67836;52.430;14.446;2023-05-07T14:44:56;1.73;;;1.23;;
78542;SDS011;67836;52.430;14.446;2023-05-07T14:47:41;2.30;;;1.10;;
78542;SDS011;67836;52.430;14.446;2023-05-07T14:50:25;2.38;;;1.17;;
78542;SDS011;67836;52.430;14.446;2023-05-07T14:53:09;3.38;;;1.67;;
78542;SDS011;67836;52.430;14.446;2023-05-07T14:55:53;2.33;;;1.30;;
78542;SDS011;67836;52.430;14.446;2023-05-07T14:58:37;2.17;;;1.27;;
78542;SDS011;67836;52.430;14.446;2023-05-07T15:01:21;2.80;;;1.50;;
78542;SDS011;67836;52.430;14.446;2023-05-07T15:04:05;3.55;;;1.35;;
78542;SDS011;67836;52.430;14.446;2023-05-07T15:06:49;1.65;;;1.20;;
78542;SDS011;67836;52.430;14.446;2023-05-07T15:09:34;2.08;;;1.30;;
78542;SDS011;67836;52.430;14.446;2023-05-07T15:12:18;2.65;;;1.40;;
78542;SDS011;67836;52.430;14.446;2023-05-07T15:15:02;2.00;;;1.15;;
78542;SDS011;67836;52.430;14.446;2023-05-07T15:17:47;2.85;;;1.40;;
78542;SDS011;67836;52.430;14.446;2023-05-07T15:20:31;2.58;;;1.40;;
78542;SDS011;67836;52.430;14.446;2023-05-07T15:23:15;3.25;;;1.70;;
78542;SDS011;67836;52.430;14.446;2023-05-07T15:25:59;2.65;;;1.25;;
78542;SDS011;67836;52.430;14.446;2023-05-07T15:28:44;2.88;;;1.45;;
78542;SDS011;67836;52.430;14.446;2023-05-07T15:31:28;2.88;;;1.67;;
78542;SDS011;67836;52.430;14.446;2023-05-07T15:34:13;2.40;;;1.25;;
78542;SDS011;67836;52.430;14.446;2023-05-07T15:36:58;3.20;;;1.40;;
78542;SDS011;67836;52.430;14.446;2023-05-07T15:39:42;1.55;;;1.17;;
78542;SDS011;67836;52.430;14.446;2023-05-07T15:42:26;2.75;;;1.23;;
78542;SDS011;67836;52.430;14.446;2023-05-07T15:45:11;2.53;;;1.35;;
78542;SDS011;67836;52.430;14.446;2023-05-07T15:47:55;2.30;;;1.30;;
78542;SDS011;67836;52.430;14.446;2023-05-07T15:50:39;2.35;;;1.35;;
78542;SDS011;67836;52.430;14.446;2023-05-07T15:53:24;1.90;;;1.10;;
78542;SDS011;67836;52.430;14.446;2023-05-07T15:56:08;4.93;;;1.48;;
78542;SDS011;67836;52.430;14.446;2023-05-07T15:58:53;2.03;;;1.40;;
78542;SDS011;67836;52.430;14.446;2023-05-07T16:01:37;3.17;;;1.00;;
78542;SDS011;67836;52.430;14.446;2023-05-07T16:04:21;3.50;;;1.58;;
78542;SDS011;67836;52.430;14.446;2023-05-07T16:07:05;2.03;;;1.55;;
78542;SDS011;67836;52.430;14.446;2023-05-07T16:09:50;2.88;;;1.50;;
78542;SDS011;67836;52.430;14.446;2023-05-07T16:12:33;2.72;;;1.52;;
78542;SDS011;67836;52.430;14.446;2023-05-07T16:15:18;3.33;;;1.48;;
78542;SDS011;67836;52.430;14.446;2023-05-07T16:18:02;3.67;;;1.48;;
78542;SDS011;67836;52.430;14.446;2023-05-07T16:20:46;2.72;;;1.55;;
78542;SDS011;67836;52.430;14.446;2023-05-07T16:23:30;2.05;;;1.10;;
78542;SDS011;67836;52.430;14.446;2023-05-07T16:26:14;3.78;;;1.70;;
78542;SDS011;67836;52.430;14.446;2023-05-07T16:28:59;2.88;;;1.55;;
78542;SDS011;67836;52.430;14.446;2023-05-07T16:31:43;3.65;;;1.52;;
78542;SDS011;67836;52.430;14.446;2023-05-07T16:34:28;3.22;;;1.35;;
78542;SDS011;67836;52.430;14.446;2023-05-07T16:37:12;3.45;;;1.60;;
78542;SDS011;67836;52.430;14.446;2023-05-07T16:39:56;3.75;;;1.77;;
78542;SDS011;67836;52.430;14.446;2023-05-07T16:42:43;2.58;;;1.33;;
78542;SDS011;67836;52.430;14.446;2023-05-07T16:45:27;4.57;;;1.75;;
78542;SDS011;67836;52.430;14.446;2023-05-07T16:48:11;2.78;;;1.17;;
78542;SDS011;67836;52.430;14.446;2023-05-07T16:50:56;2.80;;;1.25;;
78542;SDS011;67836;52.430;14.446;2023-05-07T16:53:41;2.33;;;1.33;;
78542;SDS011;67836;52.430;14.446;2023-05-07T16:56:24;2.47;;;1.30;;
78542;SDS011;67836;52.430;14.446;2023-05-07T16:59:09;2.38;;;1.33;;
78542;SDS011;67836;52.430;14.446;2023-05-07T17:01:53;2.92;;;1.70;;
78542;SDS011;67836;52.430;14.446;2023-05-07T17:04:38;3.13;;;1.75;;
78542;SDS011;67836;52.430;14.446;2023-05-07T17:07:22;4.95;;;2.05;;
78542;SDS011;67836;52.430;14.446;2023-05-07T17:10:09;2.30;;;1.30;;
78542;SDS011;67836;52.430;14.446;2023-05-07T17:12:53;3.67;;;1.75;;
78542;SDS011;67836;52.430;14.446;2023-05-07T17:15:37;3.92;;;1.70;;